Time;durP1;ratioP1;P1;durP2;ratioP2;P2;SDS_P1;SDS_P2;PMS_P1;PMS_P2;Temp;Humidity;BMP_temperature;BMP_pressure;BME280_temperature;BME280_humidity;BME280_pressure;Samples;Min_cycle;Max_cycle;Signal;HPM_P1;HPM_P2
2022/07/27 00:00:05;;;;;;;449.43;404.60;;;;;;;27.37;52.75;98967.84;304190;32;4615;-78
2022/07/27 00:00:16;;;;;;;446.23;401.63;;;;;;;27.34;52.60;98962.81;302654;32;4159;-78
2022/07/27 00:00:27;;;;;;;442.02;397.63;;;;;;;27.36;52.95;98966.16;300017;32;1234;-78
2022/07/27 00:00:38;;;;;;;441.58;397.20;;;;;;;27.34;52.54;98967.38;298349;32;3370;-79
2022/07/27 00:00:48;;;;;;;445.00;400.40;;;;;;;27.35;52.91;98971.72;296130;32;2863;-79
2022/07/27 00:00:59;;;;;;;445.85;401.20;;;;;;;27.30;52.94;98966.91;296038;33;1361;-79
2022/07/27 00:01:11;;;;;;;447.57;402.60;;;;;;;27.28;52.73;98963.59;298416;33;2962;-78
2022/07/27 00:01:21;;;;;;;447.23;402.42;;;;;;;27.28;53.23;98965.44;292934;33;5098;-78
2022/07/27 00:01:32;;;;;;;447.58;403.00;;;;;;;27.28;52.99;98968.97;290800;33;6572;-78
2022/07/27 00:01:42;;;;;;;444.30;399.73;;;;;;;27.27;53.36;98967.31;291043;34;1286;-78
2022/07/27 00:01:53;;;;;;;444.73;399.92;;;;;;;27.28;53.11;98968.16;291815;33;6998;-78
2022/07/27 00:02:04;;;;;;;442.00;397.07;;;;;;;27.28;52.96;98966.28;291435;33;7332;-79
2022/07/27 00:02:15;;;;;;;444.23;399.58;;;;;;;27.28;53.22;98968.16;290090;33;6203;-78
2022/07/27 00:02:25;;;;;;;442.70;398.23;;;;;;;27.27;53.00;98971.84;285235;34;1256;-79
2022/07/27 00:02:36;;;;;;;443.37;398.93;;;;;;;27.26;53.41;98965.63;282716;34;6704;-79
2022/07/27 00:02:46;;;;;;;444.10;399.60;;;;;;;27.27;53.45;98967.31;279381;34;5266;-79
2022/07/27 00:02:57;;;;;;;445.40;401.08;;;;;;;27.27;52.92;98971.84;276205;35;1203;-78
2022/07/27 00:03:07;;;;;;;446.40;402.17;;;;;;;27.29;52.86;98967.13;277653;35;4126;-78
2022/07/27 00:03:17;;;;;;;448.17;403.88;;;;;;;27.28;53.30;98968.97;278756;35;4777;-78
2022/07/27 00:03:28;;;;;;;448.23;403.80;;;;;;;27.29;52.89;98976.03;278315;35;1383;-79
2022/07/27 00:03:38;;;;;;;447.03;402.43;;;;;;;27.30;53.22;98974.13;274241;35;6682;-78
2022/07/27 00:03:49;;;;;;;445.17;400.63;;;;;;;27.27;53.07;98972.69;272127;35;9436;-78
2022/07/27 00:03:59;;;;;;;445.67;401.08;;;;;;;27.26;53.02;98968.31;272818;36;1350;-78
2022/07/27 00:04:10;;;;;;;448.63;403.83;;;;;;;27.25;53.16;98968.50;266333;36;10889;-78
2022/07/27 00:06:03;;;;;;;407.66;360.35;;;;;;;27.17;53.76;98977.50;2497418;27;20476;-78
2022/07/27 00:06:14;;;;;;;436.63;392.93;;;;;;;27.16;53.71;98970.44;351338;28;1199;-78
2022/07/27 00:06:24;;;;;;;435.27;391.42;;;;;;;27.17;54.26;98977.50;347114;28;1266;-78
2022/07/27 00:06:35;;;;;;;434.77;390.90;;;;;;;27.19;54.22;98974.63;351720;28;1244;-78
2022/07/27 00:06:45;;;;;;;432.90;389.08;;;;;;;27.15;54.30;98966.09;350137;28;1242;-77
2022/07/27 00:06:55;;;;;;;437.73;393.73;;;;;;;27.14;54.25;98976.00;347467;28;986;-78
2022/07/27 00:07:06;;;;;;;439.10;394.75;;;;;;;27.15;54.46;98976.84;351473;28;1230;-78
2022/07/27 00:07:16;;;;;;;439.40;394.87;;;;;;;27.15;54.67;98974.16;350142;28;1241;-78
2022/07/27 00:07:27;;;;;;;439.92;395.40;;;;;;;27.13;54.77;98966.28;347368;28;1337;-79
2022/07/27 00:07:37;;;;;;;442.03;397.60;;;;;;;27.14;55.08;98970.63;347344;28;1191;-78
2022/07/27 00:07:48;;;;;;;439.55;395.17;;;;;;;27.13;55.41;98976.19;350726;28;1274;-78
2022/07/27 00:07:58;;;;;;;439.83;395.27;;;;;;;27.14;55.40;98972.47;353521;28;1293;-78
2022/07/27 00:08:08;;;;;;;438.57;394.13;;;;;;;27.15;55.50;98974.16;353105;28;1282;-78
2022/07/27 00:08:19;;;;;;;443.50;399.00;;;;;;;27.14;55.52;98976.00;347373;28;1466;-78
2022/07/27 00:08:29;;;;;;;439.93;395.57;;;;;;;27.16;55.48;98971.28;347559;28;1441;-78
2022/07/27 00:08:40;;;;;;;428.92;384.60;;;;;;;27.16;55.33;98970.44;349279;28;1278;-79
2022/07/27 00:08:50;;;;;;;420.67;376.60;;;;;;;27.16;55.58;98970.44;348299;28;863;-80
2022/07/27 00:09:01;;;;;;;419.05;375.35;;;;;;;27.15;55.73;98969.63;347620;28;1345;-80
2022/07/27 00:09:11;;;;;;;427.53;383.73;;;;;;;27.15;55.61;98968.78;346677;28;791;-79
2022/07/27 00:09:22;;;;;;;431.27;387.13;;;;;;;27.13;55.81;98970.81;345175;28;1311;-79
2022/07/27 00:09:33;;;;;;;435.10;390.55;;;;;;;27.13;55.74;98974.34;343815;28;1478;-79
2022/07/27 00:09:43;;;;;;;435.20;390.77;;;;;;;27.14;55.86;98975.16;344798;28;1322;-78
2022/07/27 00:09:54;;;;;;;436.05;391.67;;;;;;;27.13;55.93;98970.81;346251;28;1350;-79
2022/07/27 00:10:04;;;;;;;440.07;395.73;;;;;;;27.11;55.91;98975.53;342109;28;1241;-79
2022/07/27 00:10:15;;;;;;;443.45;399.02;;;;;;;27.11;55.99;98972.84;347371;28;1469;-79
2022/07/27 00:10:26;;;;;;;441.75;397.48;;;;;;;27.11;56.05;98975.53;348038;28;1272;-79
2022/07/27 00:10:36;;;;;;;440.10;396.00;;;;;;;27.08;56.19;98968.69;342541;28;1455;-78
2022/07/27 00:10:47;;;;;;;432.90;388.92;;;;;;;27.07;56.31;98975.06;339563;29;1312;-78
2022/07/27 00:10:57;;;;;;;435.77;391.53;;;;;;;27.08;56.06;98973.22;342176;28;1319;-78
2022/07/27 00:11:08;;;;;;;435.77;391.27;;;;;;;27.06;56.16;98975.25;343521;28;1180;-78
2022/07/27 00:11:19;;;;;;;445.27;400.58;;;;;;;27.07;56.47;98972.38;342370;28;948;-80
2022/07/27 00:11:29;;;;;;;444.83;400.27;;;;;;;27.06;56.49;98976.09;342250;28;1333;-79
2022/07/27 00:11:40;;;;;;;441.67;397.47;;;;;;;27.06;56.26;98970.72;340949;28;1273;-79
2022/07/27 00:11:50;;;;;;;438.30;394.30;;;;;;;27.05;56.35;98976.28;341453;28;1278;-79
2022/07/27 00:12:01;;;;;;;439.47;395.20;;;;;;;27.07;56.95;98971.53;340967;29;1173;-79
2022/07/27 00:12:11;;;;;;;443.40;398.83;;;;;;;27.07;56.60;98976.91;340164;28;1406;-79
2022/07/27 00:12:21;;;;;;;445.33;400.73;;;;;;;27.08;56.39;98967.84;340025;29;1504;-79
2022/07/27 00:12:32;;;;;;;444.67;400.50;;;;;;;27.09;56.41;98974.88;341479;28;1398;-79
2022/07/27 00:12:42;;;;;;;443.13;399.00;;;;;;;27.11;56.60;98975.53;340725;29;1125;-79
2022/07/27 00:12:53;;;;;;;437.83;394.50;;;;;;;27.10;56.46;98973.88;340153;29;1358;-79
2022/07/27 00:13:03;;;;;;;439.52;396.02;;;;;;;27.11;56.47;98975.53;341977;29;1327;-79
2022/07/27 00:13:14;;;;;;;441.37;397.73;;;;;;;27.10;56.60;98972.00;339160;29;1176;-79
2022/07/27 00:13:24;;;;;;;446.73;402.33;;;;;;;27.08;56.81;98975.91;337599;29;1201;-79
2022/07/27 00:13:35;;;;;;;444.17;399.83;;;;;;;27.11;56.11;98979.06;336021;29;1000;-79
2022/07/27 00:13:45;;;;;;;441.90;397.50;;;;;;;27.09;56.42;98974.88;338061;29;1312;-79
2022/07/27 00:13:56;;;;;;;442.02;397.55;;;;;;;27.09;56.22;98977.56;334299;29;1286;-79
2022/07/27 00:14:06;;;;;;;445.00;400.40;;;;;;;27.07;56.03;98971.53;332410;29;1253;-79
2022/07/27 00:14:17;;;;;;;450.77;405.83;;;;;;;27.04;56.18;98979.97;337257;29;1196;-79
2022/07/27 00:14:27;;;;;;;451.08;406.10;;;;;;;27.05;56.45;98981.63;336357;29;1294;-79
2022/07/27 00:14:37;;;;;;;456.40;411.17;;;;;;;27.04;56.13;98983.50;334769;29;1743;-79
2022/07/27 00:14:48;;;;;;;455.93;410.87;;;;;;;26.98;56.60;98983.38;335942;29;1347;-79
2022/07/27 00:14:58;;;;;;;453.10;408.20;;;;;;;26.93;56.57;98977.69;331558;29;1538;-79
2022/07/27 00:15:09;;;;;;;447.90;403.30;;;;;;;26.87;56.52;98983.78;328699;30;1415;-79
2022/07/27 00:15:20;;;;;;;446.20;401.77;;;;;;;26.82;56.90;98979.84;331976;29;1479;-79
2022/07/27 00:15:30;;;;;;;442.85;398.67;;;;;;;26.83;56.61;98970.75;334612;29;966;-79
2022/07/27 00:15:41;;;;;;;438.92;394.63;;;;;;;26.80;56.90;98971.13;331535;29;1214;-79
2022/07/27 00:15:52;;;;;;;431.33;387.03;;;;;;;26.82;56.92;98979.00;330823;29;1555;-79
2022/07/27 00:16:03;;;;;;;426.60;382.38;;;;;;;26.83;56.45;98976.13;332180;29;1025;-79
2022/07/27 00:16:13;;;;;;;423.20;379.20;;;;;;;26.87;56.76;98978.41;333288;29;1833;-79
2022/07/27 00:16:24;;;;;;;423.23;379.20;;;;;;;26.86;56.71;98984.84;333482;29;1512;-79
2022/07/27 00:16:34;;;;;;;421.70;377.80;;;;;;;26.86;56.70;98976.78;333263;29;1339;-79
2022/07/27 00:16:45;;;;;;;421.93;377.93;;;;;;;26.88;56.74;98974.72;333771;29;2114;-79
2022/07/27 00:16:55;;;;;;;421.20;377.15;;;;;;;26.88;56.92;98975.56;331024;29;2123;-79
2022/07/27 00:17:05;;;;;;;418.73;374.87;;;;;;;26.89;56.42;98979.06;332207;29;1593;-79
2022/07/27 00:17:21;;;;;;;411.65;368.02;;;;;;;26.89;56.62;98973.69;331085;29;1674;-79
2022/07/27 00:17:32;;;;;;;409.88;366.45;;;;;;;26.87;56.64;98981.09;327379;30;1344;-79
2022/07/27 00:17:42;;;;;;;412.07;368.33;;;;;;;26.87;56.59;98981.09;328541;30;1322;-79
2022/07/27 00:17:54;;;;;;;417.08;373.13;;;;;;;26.86;56.64;98974.09;330451;29;1672;-79
2022/07/27 00:18:04;;;;;;;420.50;376.42;;;;;;;26.88;56.60;98980.09;326430;30;943;-79
2022/07/27 00:18:15;;;;;;;423.70;379.77;;;;;;;26.87;56.58;98975.72;325736;30;2061;-79
2022/07/27 00:18:25;;;;;;;425.37;381.30;;;;;;;26.84;56.46;98976.97;322700;30;2145;-79
2022/07/27 00:18:36;;;;;;;424.70;380.70;;;;;;;26.84;56.34;98977.81;317913;30;1350;-79
2022/07/27 00:18:47;;;;;;;421.40;377.35;;;;;;;26.84;56.57;98980.47;321866;30;2252;-80
2022/07/27 00:18:58;;;;;;;417.25;373.35;;;;;;;26.85;56.51;98975.94;323514;30;2366;-80
2022/07/27 00:19:08;;;;;;;416.25;372.45;;;;;;;26.84;56.31;98977.81;324312;30;2597;-80
2022/07/27 00:19:18;;;;;;;422.47;378.80;;;;;;;26.86;56.45;98979.47;318844;31;1202;-80
2022/07/27 00:19:29;;;;;;;426.10;382.20;;;;;;;26.82;56.31;98979.84;316644;31;1966;-80
2022/07/27 00:19:39;;;;;;;431.20;386.87;;;;;;;26.81;56.65;98978.16;315999;31;1327;-79
2022/07/27 00:19:50;;;;;;;425.02;380.92;;;;;;;26.78;56.79;98973.16;317593;31;1303;-79
2022/07/27 00:20:00;;;;;;;423.60;379.43;;;;;;;26.75;56.78;98980.75;315681;30;1954;-79
2022/07/27 00:20:11;;;;;;;422.38;378.50;;;;;;;26.77;56.91;98984.91;316228;30;1968;-79
2022/07/27 00:20:21;;;;;;;430.33;386.20;;;;;;;26.75;56.72;98983.41;313306;31;1072;-79
2022/07/27 00:20:32;;;;;;;430.20;386.13;;;;;;;26.73;56.99;98986.28;312160;31;835;-79
2022/07/27 00:20:42;;;;;;;429.30;385.17;;;;;;;26.73;56.89;98990.81;312696;31;3171;-79
2022/07/27 00:20:53;;;;;;;427.63;383.50;;;;;;;26.70;56.94;98986.66;310999;31;3444;-80
2022/07/27 00:21:03;;;;;;;425.33;380.97;;;;;;;26.71;56.96;98980.25;307293;32;1198;-80
2022/07/27 00:21:13;;;;;;;426.23;381.83;;;;;;;26.73;57.04;98983.59;308957;31;2908;-80
2022/07/27 00:21:25;;;;;;;427.60;383.08;;;;;;;26.74;56.88;98987.97;309607;31;2963;-79
2022/07/27 00:21:36;;;;;;;428.80;384.40;;;;;;;26.69;57.04;98984.16;312060;31;882;-79
2022/07/27 00:21:46;;;;;;;422.77;378.47;;;;;;;26.63;57.60;98980.31;306307;32;2486;-79
2022/07/27 00:21:57;;;;;;;421.08;376.95;;;;;;;26.62;57.53;98989.41;306886;31;2166;-79
2022/07/27 00:22:08;;;;;;;430.45;385.98;;;;;;;26.59;57.75;98984.38;308004;31;2687;-79
2022/07/27 00:22:18;;;;;;;442.90;398.20;;;;;;;26.58;57.69;98977.34;309158;32;820;-79
2022/07/27 00:22:28;;;;;;;445.48;400.63;;;;;;;26.59;57.90;98979.00;305627;32;3200;-79
2022/07/27 00:22:39;;;;;;;442.70;398.07;;;;;;;26.60;57.81;98983.38;303961;31;3710;-79
2022/07/27 00:22:49;;;;;;;440.80;395.97;;;;;;;26.64;57.51;98979.31;306107;32;974;-79
2022/07/27 00:23:00;;;;;;;445.67;400.70;;;;;;;26.63;57.44;98985.69;304573;32;4802;-79
2022/07/27 00:23:10;;;;;;;439.93;394.93;;;;;;;26.64;57.81;98984.69;301136;32;5903;-79
2022/07/27 00:23:21;;;;;;;436.00;391.25;;;;;;;26.65;57.42;98982.84;300463;32;1337;-79
2022/07/27 00:23:31;;;;;;;431.00;386.47;;;;;;;26.65;57.50;98983.66;297728;32;3856;-79
2022/07/27 00:23:42;;;;;;;431.42;386.98;;;;;;;26.64;57.39;98979.31;295551;33;4006;-79
2022/07/27 00:23:53;;;;;;;433.20;388.63;;;;;;;26.61;57.60;98978.84;291486;33;3723;-79
2022/07/27 00:24:03;;;;;;;436.02;391.45;;;;;;;26.61;57.68;98982.34;288483;34;1406;-79
2022/07/27 00:24:14;;;;;;;438.33;393.63;;;;;;;26.62;57.46;98983.19;288420;33;3038;-79
2022/07/27 00:24:24;;;;;;;439.75;395.25;;;;;;;26.59;57.85;98976.34;289525;33;4634;-79
2022/07/27 00:24:35;;;;;;;443.53;398.83;;;;;;;26.56;58.11;98975.84;289483;34;1377;-79
2022/07/27 00:24:45;;;;;;;442.73;398.20;;;;;;;26.54;58.11;98985.94;285217;34;5340;-79
2022/07/27 00:24:56;;;;;;;439.88;395.25;;;;;;;26.51;58.41;98982.59;284767;34;5864;-79
2022/07/27 00:25:06;;;;;;;438.30;393.73;;;;;;;26.51;58.70;98984.44;287714;34;1453;-80
2022/07/27 00:25:17;;;;;;;440.80;396.27;;;;;;;26.48;58.00;98982.97;280350;35;895;-79
2022/07/27 00:25:27;;;;;;;441.52;397.00;;;;;;;26.42;58.38;98975.66;280571;34;8953;-79
2022/07/27 00:25:38;;;;;;;439.77;395.20;;;;;;;26.43;58.37;98979.13;279398;34;5941;-79
2022/07/27 00:25:48;;;;;;;438.42;393.83;;;;;;;26.39;58.29;98986.75;280243;35;1239;-79
2022/07/27 00:25:59;;;;;;;442.77;398.13;;;;;;;26.40;58.38;98984.91;280066;35;5955;-79
2022/07/27 00:26:09;;;;;;;447.23;402.40;;;;;;;26.42;58.24;98985.56;277987;35;5226;-79
2022/07/27 00:26:20;;;;;;;450.67;405.75;;;;;;;26.45;58.13;98983.31;277177;35;1237;-79
2022/07/27 00:26:30;;;;;;;451.08;406.17;;;;;;;26.48;57.87;98982.13;271979;35;4975;-79
2022/07/27 00:26:40;;;;;;;458.80;413.70;;;;;;;26.49;58.22;98984.63;268252;36;7205;-79
2022/07/27 00:26:51;;;;;;;459.23;414.00;;;;;;;26.50;58.16;98985.47;268196;36;1402;-79
2022/07/27 00:28:30;;;;;;;425.18;378.19;;;;;;;26.37;58.55;98987.94;2502351;27;20265;-78
2022/07/27 00:28:40;;;;;;;459.90;415.17;;;;;;;26.36;58.30;98984.41;350209;28;1290;-78
2022/07/27 00:28:51;;;;;;;458.17;413.63;;;;;;;26.39;58.60;98985.91;346339;28;1302;-78
2022/07/27 00:29:01;;;;;;;457.77;413.33;;;;;;;26.43;58.28;98984.50;347893;28;1267;-79
2022/07/27 00:29:11;;;;;;;455.20;410.63;;;;;;;26.46;58.33;98989.50;347426;28;1191;-78
2022/07/27 00:29:22;;;;;;;458.95;414.35;;;;;;;26.48;58.29;98982.13;351470;28;1388;-78
2022/07/27 00:29:33;;;;;;;460.47;415.73;;;;;;;26.48;58.05;98992.84;350128;28;1183;-78
2022/07/27 00:29:44;;;;;;;463.20;418.52;;;;;;;26.49;58.30;98983.78;347625;28;891;-78
2022/07/27 00:29:54;;;;;;;466.27;421.30;;;;;;;26.47;58.32;98986.66;347318;28;1299;-79
2022/07/27 00:30:05;;;;;;;465.35;420.33;;;;;;;26.46;58.41;98984.97;348690;28;1248;-79
2022/07/27 00:30:16;;;;;;;460.02;414.90;;;;;;;26.46;58.07;98990.34;346207;28;1470;-79
2022/07/27 00:30:26;;;;;;;457.27;412.23;;;;;;;26.44;58.20;98994.22;346828;28;1180;-79
2022/07/27 00:30:37;;;;;;;455.08;410.05;;;;;;;26.46;58.25;98989.50;349163;28;1057;-79
2022/07/27 00:30:47;;;;;;;453.10;408.37;;;;;;;26.47;58.40;98991.19;349818;28;1318;-79
2022/07/27 00:30:57;;;;;;;451.83;407.43;;;;;;;26.47;58.09;98991.19;345072;28;910;-79
2022/07/27 00:31:08;;;;;;;452.33;408.02;;;;;;;26.47;58.20;98991.19;346687;28;1491;-79
2022/07/27 00:31:18;;;;;;;452.50;408.27;;;;;;;26.45;58.42;98988.69;347447;28;726;-79
2022/07/27 00:31:29;;;;;;;453.27;408.95;;;;;;;26.46;57.91;98984.16;345125;28;1139;-79
2022/07/27 00:31:39;;;;;;;459.83;415.30;;;;;;;26.46;58.06;98984.16;347778;28;1168;-79
2022/07/27 00:31:50;;;;;;;466.63;421.95;;;;;;;26.49;57.96;98984.63;348625;28;1222;-79
2022/07/27 00:32:00;;;;;;;468.27;423.57;;;;;;;26.52;57.74;98989.63;344271;28;1626;-79
2022/07/27 00:32:10;;;;;;;468.20;423.47;;;;;;;26.52;58.00;98992.31;349739;28;1212;-79
2022/07/27 00:32:21;;;;;;;466.42;421.67;;;;;;;26.52;57.86;98989.63;350146;28;1315;-79
2022/07/27 00:32:31;;;;;;;464.37;419.47;;;;;;;26.54;57.91;98989.47;345942;28;1302;-78
2022/07/27 00:32:42;;;;;;;459.73;414.98;;;;;;;26.54;57.58;98992.16;347642;28;887;-78
2022/07/27 00:32:52;;;;;;;456.33;411.53;;;;;;;26.52;57.93;98994.16;349417;28;1103;-79
2022/07/27 00:33:04;;;;;;;457.83;413.02;;;;;;;26.51;57.83;98989.81;347609;28;1343;-79
2022/07/27 00:33:15;;;;;;;458.63;414.05;;;;;;;26.50;58.07;98980.94;343766;28;1332;-79
2022/07/27 00:33:25;;;;;;;462.63;418.13;;;;;;;26.51;57.76;98987.13;345565;28;1316;-79
2022/07/27 00:33:35;;;;;;;463.17;418.85;;;;;;;26.48;57.68;98987.50;350297;28;1361;-79
2022/07/27 00:33:46;;;;;;;466.93;422.33;;;;;;;26.51;57.96;98992.50;350277;28;840;-79
2022/07/27 00:33:56;;;;;;;465.95;421.20;;;;;;;26.50;57.72;98991.66;347357;28;1343;-79
2022/07/27 00:34:07;;;;;;;463.77;419.07;;;;;;;26.49;57.90;98981.09;343968;28;1220;-79
2022/07/27 00:34:17;;;;;;;466.10;421.03;;;;;;;26.51;58.09;98987.13;345135;28;829;-79
2022/07/27 00:34:28;;;;;;;470.25;425.00;;;;;;;26.52;58.13;98986.13;344640;28;1021;-79
2022/07/27 00:34:38;;;;;;;478.63;433.20;;;;;;;26.51;57.98;98987.97;342724;28;948;-79
2022/07/27 00:34:49;;;;;;;479.33;434.05;;;;;;;26.50;57.87;98986.28;339583;29;1388;-79
2022/07/27 00:34:59;;;;;;;472.43;427.00;;;;;;;26.51;57.97;98987.13;340765;29;1311;-79
2022/07/27 00:35:10;;;;;;;467.00;421.55;;;;;;;26.50;57.66;98985.47;345145;28;1050;-79
2022/07/27 00:35:20;;;;;;;461.20;416.07;;;;;;;26.53;57.42;98987.78;343281;28;1282;-79
2022/07/27 00:35:31;;;;;;;460.35;415.65;;;;;;;26.54;57.47;98989.47;340904;29;1433;-79
2022/07/27 00:35:42;;;;;;;457.83;413.30;;;;;;;26.53;57.75;98985.09;342577;28;1383;-79
2022/07/27 00:35:52;;;;;;;457.40;412.87;;;;;;;26.54;57.82;98992.16;342536;28;1374;-79
2022/07/27 00:36:03;;;;;;;460.52;416.02;;;;;;;26.53;57.39;98985.09;342088;28;1427;-79
2022/07/27 00:36:13;;;;;;;463.10;418.50;;;;;;;26.53;57.63;98985.09;344629;28;1184;-79
2022/07/27 00:36:24;;;;;;;465.17;420.53;;;;;;;26.51;57.56;98987.13;340940;28;1201;-79
2022/07/27 00:36:34;;;;;;;465.10;420.43;;;;;;;26.50;57.49;98985.47;339300;28;1334;-79
2022/07/27 00:36:44;;;;;;;467.60;422.60;;;;;;;26.48;57.61;98985.63;341143;29;1435;-79
2022/07/27 00:36:55;;;;;;;470.07;424.90;;;;;;;26.51;57.41;98989.81;340196;29;1845;-78
2022/07/27 00:37:06;;;;;;;471.48;426.25;;;;;;;26.51;57.63;98987.97;338167;29;1222;-78
2022/07/27 00:37:16;;;;;;;473.03;427.83;;;;;;;26.52;57.34;98994.16;338065;29;1342;-79
2022/07/27 00:37:26;;;;;;;471.20;426.05;;;;;;;26.53;57.66;98985.09;338561;29;1390;-79
2022/07/27 00:37:37;;;;;;;465.50;420.47;;;;;;;26.52;57.60;98988.81;340703;29;1224;-79
2022/07/27 00:37:48;;;;;;;457.83;413.23;;;;;;;26.52;57.38;98988.81;336723;29;862;-79
2022/07/27 00:37:58;;;;;;;455.25;410.98;;;;;;;26.54;57.52;98992.16;338132;29;789;-79
2022/07/27 00:38:08;;;;;;;458.03;413.70;;;;;;;26.51;57.77;98987.97;334623;29;1245;-79
2022/07/27 00:38:19;;;;;;;464.03;419.40;;;;;;;26.52;57.64;98991.50;330448;29;1281;-79
2022/07/27 00:38:29;;;;;;;465.95;421.15;;;;;;;26.50;57.72;98985.47;330560;29;1215;-79
2022/07/27 00:38:40;;;;;;;465.03;420.27;;;;;;;26.50;57.43;98993.50;333359;29;1818;-79
2022/07/27 00:38:50;;;;;;;462.23;417.55;;;;;;;26.49;57.56;98992.69;331406;29;1666;-79
2022/07/27 00:39:00;;;;;;;460.20;415.50;;;;;;;26.48;57.90;98992.84;328408;30;1309;-79
2022/07/27 00:39:11;;;;;;;457.20;412.60;;;;;;;26.47;57.97;98991.19;328043;30;2125;-79
2022/07/27 00:39:21;;;;;;;457.73;412.92;;;;;;;26.47;57.73;98996.56;328386;29;1842;-79
2022/07/27 00:39:32;;;;;;;459.73;414.83;;;;;;;26.47;57.96;98988.50;328465;30;1384;-79
2022/07/27 00:39:42;;;;;;;459.38;414.60;;;;;;;26.42;57.39;98983.69;325785;30;1663;-79
2022/07/27 00:39:53;;;;;;;456.70;412.17;;;;;;;26.42;57.94;98985.56;327998;30;980;-80
2022/07/27 00:40:04;;;;;;;450.83;406.63;;;;;;;26.43;57.87;98990.72;328566;30;792;-79
2022/07/27 00:40:14;;;;;;;450.80;406.55;;;;;;;26.42;57.92;98983.69;327257;30;1210;-79
2022/07/27 00:40:26;;;;;;;447.08;402.92;;;;;;;26.45;57.91;98987.84;329815;29;2245;-79
2022/07/27 00:40:36;;;;;;;449.48;405.20;;;;;;;26.45;57.62;98987.84;325649;30;2017;-79
2022/07/27 00:40:47;;;;;;;449.33;405.15;;;;;;;26.45;57.58;98988.69;324992;30;1288;-79
2022/07/27 00:40:57;;;;;;;447.70;403.50;;;;;;;26.46;57.99;98989.50;323012;30;2153;-79
2022/07/27 00:41:08;;;;;;;449.15;404.70;;;;;;;26.46;57.58;98990.34;321937;30;2143;-79
2022/07/27 00:41:18;;;;;;;451.33;406.63;;;;;;;26.49;57.56;98990.00;322195;30;1215;-78
2022/07/27 00:41:29;;;;;;;449.23;404.67;;;;;;;26.50;57.70;98988.97;326390;30;2546;-78
2022/07/27 00:41:39;;;;;;;451.43;406.87;;;;;;;26.46;57.36;98978.78;323031;30;2010;-78
2022/07/27 00:41:49;;;;;;;451.73;407.17;;;;;;;26.48;57.41;98992.84;318529;30;1743;-79
2022/07/27 00:42:00;;;;;;;451.48;406.98;;;;;;;26.46;57.39;98994.88;318976;31;1225;-79
2022/07/27 00:42:10;;;;;;;445.83;401.40;;;;;;;26.46;57.51;98993.03;318702;30;1821;-79
2022/07/27 00:42:26;;;;;;;446.95;402.55;;;;;;;26.47;57.54;98989.34;318558;30;2089;-78
2022/07/27 00:42:37;;;;;;;450.52;406.13;;;;;;;26.45;57.49;98986.00;318920;30;2302;-78
2022/07/27 00:42:47;;;;;;;454.63;410.13;;;;;;;26.44;57.53;98991.53;317258;31;1341;-78
2022/07/27 00:42:58;;;;;;;457.17;412.90;;;;;;;26.43;57.46;98984.50;318056;30;2775;-78
2022/07/27 00:43:08;;;;;;;456.23;411.90;;;;;;;26.43;57.41;98995.25;312609;31;3085;-78
2022/07/27 00:43:19;;;;;;;449.43;405.37;;;;;;;26.42;57.54;98991.75;309693;31;1211;-78
2022/07/27 00:43:29;;;;;;;451.08;406.80;;;;;;;26.44;57.69;98988.88;311024;31;878;-78
2022/07/27 00:43:55;;;;;;;452.07;407.97;;;;;;;26.46;57.44;98992.19;308595;31;3209;-78
2022/07/27 00:44:06;;;;;;;464.85;420.38;;;;;;;26.46;57.22;98989.50;299041;32;2058;-78
2022/07/27 00:44:26;;;;;;;462.67;418.23;;;;;;;26.42;57.35;98998.97;297284;33;1171;-78
2022/07/27 00:44:37;;;;;;;449.08;405.02;;;;;;;26.42;57.67;98990.91;296032;33;3279;-79
2022/07/27 00:44:47;;;;;;;447.60;403.53;;;;;;;26.42;57.53;98993.59;295521;33;1385;-78
2022/07/27 00:44:58;;;;;;;454.80;410.13;;;;;;;26.40;57.65;98992.94;291558;33;3762;-78
2022/07/27 00:45:08;;;;;;;467.20;422.17;;;;;;;26.39;57.65;98989.44;290407;33;3908;-78
2022/07/27 00:45:19;;;;;;;476.95;431.55;;;;;;;26.40;57.61;98987.56;287027;34;2955;-79
2022/07/27 00:45:29;;;;;;;479.53;434.17;;;;;;;26.40;57.32;98990.25;281649;35;1337;-79
2022/07/27 00:45:40;;;;;;;476.17;430.92;;;;;;;26.40;57.65;98993.78;284362;34;4470;-79
2022/07/27 00:45:51;;;;;;;472.73;427.65;;;;;;;26.41;56.88;98991.94;285708;34;4836;-79
2022/07/27 00:46:02;;;;;;;475.20;430.00;;;;;;;26.36;57.10;98987.09;285674;34;1241;-79
2022/07/27 00:46:13;;;;;;;474.55;429.40;;;;;;;26.36;57.73;98989.78;282753;34;3384;-79
2022/07/27 00:46:24;;;;;;;472.90;427.57;;;;;;;26.37;57.64;98985.25;281371;34;3023;-79
2022/07/27 00:46:34;;;;;;;477.05;431.50;;;;;;;26.35;57.62;98987.28;281237;34;4097;-79
2022/07/27 00:46:44;;;;;;;478.92;433.20;;;;;;;26.36;57.54;98988.94;282123;35;1318;-78
2022/07/27 00:46:55;;;;;;;482.63;436.80;;;;;;;26.35;57.57;98992.66;280319;35;5116;-78
2022/07/27 00:47:06;;;;;;;482.52;436.80;;;;;;;26.34;57.76;98982.91;278009;34;5544;-78
2022/07/27 00:47:16;;;;;;;486.30;440.57;;;;;;;26.36;57.85;98997.00;281170;35;1114;-78
2022/07/27 00:47:26;;;;;;;485.48;439.92;;;;;;;26.38;57.69;98992.28;277876;35;6824;-78
2022/07/27 00:47:37;;;;;;;479.53;434.20;;;;;;;26.40;57.73;98995.63;273203;35;6914;-78
2022/07/27 00:47:47;;;;;;;475.83;430.45;;;;;;;26.41;57.88;98997.31;271948;36;1519;-78
2022/07/27 00:47:58;;;;;;;476.23;430.80;;;;;;;26.42;57.63;98996.28;271508;36;6548;-78
2022/07/27 00:48:08;;;;;;;477.85;432.60;;;;;;;26.42;57.79;98993.59;271507;35;6826;-79
2022/07/27 00:48:19;;;;;;;474.30;429.10;;;;;;;26.40;57.81;98995.63;272155;36;1253;-79
2022/07/27 00:48:29;;;;;;;471.83;426.65;;;;;;;26.42;57.78;98993.59;269665;36;1293;-78
2022/07/27 00:48:39;;;;;;;473.47;428.07;;;;;;;26.43;57.61;98995.25;267287;36;4257;-78
2022/07/27 00:48:50;;;;;;;474.83;429.47;;;;;;;26.42;57.71;98993.59;264972;36;6173;-79
2022/07/27 00:49:01;;;;;;;472.02;426.83;;;;;;;26.41;57.88;98991.94;262538;37;1392;-79
2022/07/27 00:49:11;;;;;;;472.85;427.55;;;;;;;26.41;57.77;98998.13;265605;36;8082;-79
2022/07/27 00:49:22;;;;;;;472.13;426.80;;;;;;;26.40;57.71;98996.47;266472;36;8480;-79
2022/07/27 00:51:13;;;;;;;433.36;382.57;;;;;;;26.24;58.24;98996.53;2502072;27;20487;-78
2022/07/27 00:51:24;;;;;;;461.10;416.52;;;;;;;26.21;58.05;98994.22;351593;28;1293;-78
2022/07/27 00:51:34;;;;;;;455.25;410.98;;;;;;;26.21;58.35;99001.41;349343;28;1235;-78
2022/07/27 00:51:44;;;;;;;462.27;417.70;;;;;;;26.20;58.30;98995.22;347530;28;1148;-78
2022/07/27 00:51:55;;;;;;;463.20;418.38;;;;;;;26.21;58.52;98996.06;347724;28;1104;-78
2022/07/27 00:52:06;;;;;;;468.77;423.67;;;;;;;26.22;58.73;98995.03;347846;28;1311;-78
2022/07/27 00:52:16;;;;;;;465.60;420.67;;;;;;;26.23;58.28;98999.41;347630;28;872;-78
2022/07/27 00:52:27;;;;;;;465.63;420.60;;;;;;;26.25;58.42;98994.69;348755;28;1506;-78
2022/07/27 00:52:37;;;;;;;460.45;415.52;;;;;;;26.23;58.48;98994.88;349534;28;1330;-78
2022/07/27 00:52:48;;;;;;;460.70;415.50;;;;;;;26.20;58.52;98997.91;348590;28;1181;-79
2022/07/27 00:52:58;;;;;;;459.33;414.15;;;;;;;26.18;58.82;98995.41;350157;28;1171;-79
2022/07/27 00:53:09;;;;;;;462.95;417.40;;;;;;;26.19;58.70;98994.38;347073;28;1440;-79
2022/07/27 00:53:19;;;;;;;464.27;418.97;;;;;;;26.20;58.84;98995.22;348722;28;1179;-79
2022/07/27 00:53:30;;;;;;;467.30;422.10;;;;;;;26.21;58.36;99001.41;351481;28;1346;-79
2022/07/27 00:53:40;;;;;;;466.48;421.55;;;;;;;26.18;58.79;99003.44;350069;28;1242;-79
2022/07/27 00:53:51;;;;;;;464.73;419.67;;;;;;;26.17;59.05;98995.56;350585;28;851;-79